sensor_id;sensor_type;location;lat;lon;timestamp;pressure;altitude;pressure_sealevel;temperature;humidity
82375;BME280;72005;50.496;15.798;2023-11-19T00:00:50;95954.31;;;1.52;87.76
82375;BME280;72005;50.496;15.798;2023-11-19T00:03:37;95955.31;;;1.51;87.77
82375;BME280;72005;50.496;15.798;2023-11-19T00:06:03;95948.53;;;1.50;87.82
82375;BME280;72005;50.496;15.798;2023-11-19T00:08:30;95951.50;;;1.47;87.63
82375;BME280;72005;50.496;15.798;2023-11-19T00:10:55;95947.91;;;1.48;87.70
82375;BME280;72005;50.496;15.798;2023-11-19T00:13:21;95949.09;;;1.45;88.28
82375;BME280;72005;50.496;15.798;2023-11-19T00:15:48;95941.16;;;1.47;87.73
82375;BME280;72005;50.496;15.798;2023-11-19T00:18:14;95936.38;;;1.50;88.13
82375;BME280;72005;50.496;15.798;2023-11-19T00:20:39;95922.28;;;1.53;87.70
82375;BME280;72005;50.496;15.798;2023-11-19T00:23:05;95922.06;;;1.54;87.70
82375;BME280;72005;50.496;15.798;2023-11-19T00:25:31;95911.47;;;1.49;87.85
82375;BME280;72005;50.496;15.798;2023-11-19T00:27:57;95912.47;;;1.48;88.37
82375;BME280;72005;50.496;15.798;2023-11-19T00:30:22;95912.47;;;1.48;87.90
82375;BME280;72005;50.496;15.798;2023-11-19T00:32:48;95902.34;;;1.53;88.23
82375;BME280;72005;50.496;15.798;2023-11-19T00:35:14;95901.97;;;1.56;88.32
82375;BME280;72005;50.496;15.798;2023-11-19T00:37:40;95891.41;;;1.58;87.92
82375;BME280;72005;50.496;15.798;2023-11-19T00:40:08;95883.66;;;1.58;88.16
82375;BME280;72005;50.496;15.798;2023-11-19T00:42:36;95879.47;;;1.57;87.87
82375;BME280;72005;50.496;15.798;2023-11-19T00:45:02;95873.69;;;1.55;87.77
82375;BME280;72005;50.496;15.798;2023-11-19T00:47:28;95861.91;;;1.46;88.18
82375;BME280;72005;50.496;15.798;2023-11-19T00:49:53;95855.13;;;1.45;88.44
82375;BME280;72005;50.496;15.798;2023-11-19T00:52:19;95855.66;;;1.33;88.71
82375;BME280;72005;50.496;15.798;2023-11-19T00:54:45;95844.94;;;1.37;88.67
82375;BME280;72005;50.496;15.798;2023-11-19T00:57:11;95820.44;;;1.32;88.96
82375;BME280;72005;50.496;15.798;2023-11-19T00:59:37;95816.84;;;1.33;89.14
82375;BME280;72005;50.496;15.798;2023-11-19T01:02:03;95820.84;;;1.36;88.86
82375;BME280;72005;50.496;15.798;2023-11-19T01:04:36;95826.41;;;1.33;89.10
82375;BME280;72005;50.496;15.798;2023-11-19T01:07:03;95839.13;;;1.34;88.80
82375;BME280;72005;50.496;15.798;2023-11-19T01:09:32;95848.69;;;1.34;89.00
82375;BME280;72005;50.496;15.798;2023-11-19T01:12:01;95834.72;;;1.28;89.27
82375;BME280;72005;50.496;15.798;2023-11-19T01:14:27;95818.41;;;1.28;88.73
82375;BME280;72005;50.496;15.798;2023-11-19T01:16:54;95810.25;;;1.24;89.06
82375;BME280;72005;50.496;15.798;2023-11-19T01:19:21;95815.19;;;1.19;89.55
82375;BME280;72005;50.496;15.798;2023-11-19T01:21:48;95817.34;;;1.16;89.44
82375;BME280;72005;50.496;15.798;2023-11-19T01:24:14;95808.34;;;1.11;89.94
82375;BME280;72005;50.496;15.798;2023-11-19T01:26:41;95805.97;;;1.10;89.90
82375;BME280;72005;50.496;15.798;2023-11-19T01:29:11;95802.16;;;1.06;90.31
82375;BME280;72005;50.496;15.798;2023-11-19T01:31:43;95794.78;;;1.03;90.45
82375;BME280;72005;50.496;15.798;2023-11-19T01:34:10;95803.16;;;1.05;90.27
82375;BME280;72005;50.496;15.798;2023-11-19T01:36:37;95795.94;;;1.00;90.66
82375;BME280;72005;50.496;15.798;2023-11-19T01:39:03;95781.19;;;0.94;90.89
82375;BME280;72005;50.496;15.798;2023-11-19T01:41:36;95791.69;;;0.86;91.42
82375;BME280;72005;50.496;15.798;2023-11-19T01:44:02;95788.53;;;0.90;91.34
82375;BME280;72005;50.496;15.798;2023-11-19T01:46:29;95774.63;;;0.92;91.19
82375;BME280;72005;50.496;15.798;2023-11-19T01:48:55;95772.81;;;0.92;91.25
82375;BME280;72005;50.496;15.798;2023-11-19T01:51:21;95773.03;;;0.90;90.96
82375;BME280;72005;50.496;15.798;2023-11-19T01:53:47;95780.41;;;0.94;91.00
82375;BME280;72005;50.496;15.798;2023-11-19T01:56:15;95773.28;;;0.96;90.69
82375;BME280;72005;50.496;15.798;2023-11-19T01:58:43;95762.13;;;0.95;90.77
82375;BME280;72005;50.496;15.798;2023-11-19T02:01:11;95739.19;;;0.85;91.33
82375;BME280;72005;50.496;15.798;2023-11-19T02:03:38;95738.63;;;0.90;91.18
82375;BME280;72005;50.496;15.798;2023-11-19T02:06:04;95734.25;;;0.90;91.16
82375;BME280;72005;50.496;15.798;2023-11-19T02:08:30;95735.44;;;0.95;91.05
82375;BME280;72005;50.496;15.798;2023-11-19T02:10:56;95735.44;;;0.95;90.53
82375;BME280;72005;50.496;15.798;2023-11-19T02:13:24;95729.91;;;0.98;90.58
82375;BME280;72005;50.496;15.798;2023-11-19T02:15:51;95729.91;;;0.98;90.41
82375;BME280;72005;50.496;15.798;2023-11-19T02:18:21;95714.03;;;1.01;90.67
82375;BME280;72005;50.496;15.798;2023-11-19T02:20:50;95705.66;;;0.99;90.87
82375;BME280;72005;50.496;15.798;2023-11-19T02:23:18;95709.59;;;0.95;90.44
82375;BME280;72005;50.496;15.798;2023-11-19T02:25:47;95691.88;;;0.92;91.10
82375;BME280;72005;50.496;15.798;2023-11-19T02:28:19;95685.69;;;0.86;90.87
82375;BME280;72005;50.496;15.798;2023-11-19T02:30:45;95691.69;;;0.86;90.72
82375;BME280;72005;50.496;15.798;2023-11-19T02:33:10;95678.13;;;0.84;91.18
82375;BME280;72005;50.496;15.798;2023-11-19T02:35:36;95683.72;;;0.88;90.77
82375;BME280;72005;50.496;15.798;2023-11-19T02:38:02;95688.09;;;0.87;91.13
82375;BME280;72005;50.496;15.798;2023-11-19T02:40:32;95689.28;;;0.92;90.50
82375;BME280;72005;50.496;15.798;2023-11-19T02:42:58;95687.31;;;0.94;90.75
82375;BME280;72005;50.496;15.798;2023-11-19T02:45:25;95676.59;;;0.97;90.33
82375;BME280;72005;50.496;15.798;2023-11-19T02:47:51;95666.63;;;0.94;90.38
82375;BME280;72005;50.496;15.798;2023-11-19T02:50:19;95673.59;;;0.93;90.42
82375;BME280;72005;50.496;15.798;2023-11-19T02:52:51;95661.47;;;0.94;90.42
82375;BME280;72005;50.496;15.798;2023-11-19T02:55:17;95669.38;;;0.85;91.05
82375;BME280;72005;50.496;15.798;2023-11-19T02:57:43;95667.56;;;0.79;91.48
82375;BME280;72005;50.496;15.798;2023-11-19T03:00:22;95673.50;;;0.73;91.47
82375;BME280;72005;50.496;15.798;2023-11-19T03:02:57;95675.31;;;0.79;91.42
82375;BME280;72005;50.496;15.798;2023-11-19T03:05:35;95669.34;;;0.72;91.35
82375;BME280;72005;50.496;15.798;2023-11-19T03:08:01;95652.97;;;0.65;92.03
82375;BME280;72005;50.496;15.798;2023-11-19T03:10:28;95650.97;;;0.60;91.76
82375;BME280;72005;50.496;15.798;2023-11-19T03:12:54;95648.50;;;0.45;92.80
82375;BME280;72005;50.496;15.798;2023-11-19T03:15:22;95653.25;;;0.42;93.26
82375;BME280;72005;50.496;15.798;2023-11-19T03:17:48;95651.44;;;0.36;93.57
82375;BME280;72005;50.496;15.798;2023-11-19T03:20:14;95649.47;;;0.38;93.80
82375;BME280;72005;50.496;15.798;2023-11-19T03:22:42;95647.06;;;0.36;93.85
82375;BME280;72005;50.496;15.798;2023-11-19T03:25:10;95642.50;;;0.38;93.66
82375;BME280;72005;50.496;15.798;2023-11-19T03:27:36;95645.47;;;0.35;93.84
82375;BME280;72005;50.496;15.798;2023-11-19T03:30:08;95639.50;;;0.35;93.83
82375;BME280;72005;50.496;15.798;2023-11-19T03:32:35;95643.66;;;0.29;93.90
82375;BME280;72005;50.496;15.798;2023-11-19T03:35:02;95638.09;;;0.32;93.85
82375;BME280;72005;50.496;15.798;2023-11-19T03:37:29;95630.53;;;0.31;94.48
82375;BME280;72005;50.496;15.798;2023-11-19T03:39:56;95622.38;;;0.27;94.02
82375;BME280;72005;50.496;15.798;2023-11-19T03:42:28;95614.25;;;0.30;94.29
82375;BME280;72005;50.496;15.798;2023-11-19T03:44:55;95611.84;;;0.29;94.74
82375;BME280;72005;50.496;15.798;2023-11-19T03:47:21;95607.09;;;0.32;94.10
82375;BME280;72005;50.496;15.798;2023-11-19T03:49:50;95594.00;;;0.34;94.13
82375;BME280;72005;50.496;15.798;2023-11-19T03:52:17;95593.19;;;0.33;94.37
82375;BME280;72005;50.496;15.798;2023-11-19T03:54:43;95580.50;;;0.32;94.27
82375;BME280;72005;50.496;15.798;2023-11-19T03:57:09;95563.19;;;0.32;94.50
82375;BME280;72005;50.496;15.798;2023-11-19T03:59:39;95563.34;;;0.24;94.88
82375;BME280;72005;50.496;15.798;2023-11-19T04:02:04;95555.38;;;0.19;94.97
82375;BME280;72005;50.496;15.798;2023-11-19T04:04:30;95556.69;;;0.08;95.47
82375;BME280;72005;50.496;15.798;2023-11-19T04:06:56;95548.94;;;0.08;95.52
82375;BME280;72005;50.496;15.798;2023-11-19T04:09:22;95557.13;;;0.12;95.54
82375;BME280;72005;50.496;15.798;2023-11-19T04:11:48;95560.28;;;0.07;95.83
82375;BME280;72005;50.496;15.798;2023-11-19T04:14:14;95553.31;;;0.08;95.86
82375;BME280;72005;50.496;15.798;2023-11-19T04:16:40;95548.16;;;0.08;96.07
82375;BME280;72005;50.496;15.798;2023-11-19T04:19:06;95540.63;;;0.06;96.27
82375;BME280;72005;50.496;15.798;2023-11-19T04:21:32;95541.41;;;0.07;95.93
82375;BME280;72005;50.496;15.798;2023-11-19T04:23:58;95537.03;;;0.07;96.21
82375;BME280;72005;50.496;15.798;2023-11-19T04:26:24;95527.28;;;0.03;96.50
82375;BME280;72005;50.496;15.798;2023-11-19T04:28:50;95516.75;;;0.04;96.67
82375;BME280;72005;50.496;15.798;2023-11-19T04:31:16;95514.19;;;0.04;96.38
82375;BME280;72005;50.496;15.798;2023-11-19T04:33:42;95526.31;;;0.04;96.83
82375;BME280;72005;50.496;15.798;2023-11-19T04:36:09;95517.19;;;0.08;96.29
82375;BME280;72005;50.496;15.798;2023-11-19T04:38:36;95515.13;;;-0.04;96.64
82375;BME280;72005;50.496;15.798;2023-11-19T04:41:02;95513.31;;;-0.10;97.01
82375;BME280;72005;50.496;15.798;2023-11-19T04:43:31;95503.19;;;-0.11;97.50
82375;BME280;72005;50.496;15.798;2023-11-19T04:45:57;95497.38;;;-0.20;98.34
82375;BME280;72005;50.496;15.798;2023-11-19T04:48:23;95500.78;;;-0.13;98.06
82375;BME280;72005;50.496;15.798;2023-11-19T04:50:49;95496.00;;;-0.16;97.98
82375;BME280;72005;50.496;15.798;2023-11-19T04:53:16;95478.13;;;-0.17;98.09
82375;BME280;72005;50.496;15.798;2023-11-19T04:55:42;95465.38;;;-0.26;98.56
82375;BME280;72005;50.496;15.798;2023-11-19T04:58:08;95454.25;;;-0.26;98.76
82375;BME280;72005;50.496;15.798;2023-11-19T05:00:34;95457.03;;;-0.28;99.04
82375;BME280;72005;50.496;15.798;2023-11-19T05:03:00;95463.38;;;-0.30;99.20
82375;BME280;72005;50.496;15.798;2023-11-19T05:05:26;95473.31;;;-0.27;98.96
82375;BME280;72005;50.496;15.798;2023-11-19T05:07:52;95465.38;;;-0.26;99.20
82375;BME280;72005;50.496;15.798;2023-11-19T05:10:18;95466.19;;;-0.25;99.25
82375;BME280;72005;50.496;15.798;2023-11-19T05:12:44;95450.66;;;-0.32;99.35
82375;BME280;72005;50.496;15.798;2023-11-19T05:15:10;95459.41;;;-0.26;99.28
82375;BME280;72005;50.496;15.798;2023-11-19T05:17:37;95459.06;;;-0.23;99.42
82375;BME280;72005;50.496;15.798;2023-11-19T05:20:04;95451.88;;;-0.28;99.12
82375;BME280;72005;50.496;15.798;2023-11-19T05:22:30;95452.66;;;-0.27;99.48
82375;BME280;72005;50.496;15.798;2023-11-19T05:24:56;95441.56;;;-0.28;99.32
82375;BME280;72005;50.496;15.798;2023-11-19T05:27:22;95447.13;;;-0.24;99.45
82375;BME280;72005;50.496;15.798;2023-11-19T05:29:49;95440.31;;;-0.32;99.54
82375;BME280;72005;50.496;15.798;2023-11-19T05:32:15;95442.38;;;-0.20;99.37
82375;BME280;72005;50.496;15.798;2023-11-19T05:34:40;95456.69;;;-0.18;99.38
82375;BME280;72005;50.496;15.798;2023-11-19T05:37:07;95446.34;;;-0.18;99.38
82375;BME280;72005;50.496;15.798;2023-11-19T05:39:35;95443.59;;;-0.16;99.50
82375;BME280;72005;50.496;15.798;2023-11-19T05:42:01;95444.38;;;-0.16;99.28
82375;BME280;72005;50.496;15.798;2023-11-19T05:44:26;95435.84;;;-0.23;99.10
82375;BME280;72005;50.496;15.798;2023-11-19T05:46:52;95429.28;;;-0.19;99.17
82375;BME280;72005;50.496;15.798;2023-11-19T05:49:18;95427.31;;;-0.17;99.36
82375;BME280;72005;50.496;15.798;2023-11-19T05:51:45;95417.41;;;-0.13;99.62
82375;BME280;72005;50.496;15.798;2023-11-19T05:54:11;95417.19;;;-0.12;99.39
82375;BME280;72005;50.496;15.798;2023-11-19T05:56:39;95417.41;;;-0.07;99.04
82375;BME280;72005;50.496;15.798;2023-11-19T05:59:04;95396.38;;;-0.04;99.31
82375;BME280;72005;50.496;15.798;2023-11-19T06:01:35;95401.53;;;-0.10;99.60
82375;BME280;72005;50.496;15.798;2023-11-19T06:04:02;95393.00;;;-0.11;99.65
82375;BME280;72005;50.496;15.798;2023-11-19T06:06:28;95389.41;;;-0.10;99.43
82375;BME280;72005;50.496;15.798;2023-11-19T06:08:54;95367.34;;;-0.19;99.90
82375;BME280;72005;50.496;15.798;2023-11-19T06:11:20;95356.41;;;-0.21;99.64
82375;BME280;72005;50.496;15.798;2023-11-19T06:13:46;95368.13;;;-0.18;100.00
82375;BME280;72005;50.496;15.798;2023-11-19T06:16:13;95391.19;;;-0.17;100.00
82375;BME280;72005;50.496;15.798;2023-11-19T06:18:39;95387.03;;;-0.11;99.89
82375;BME280;72005;50.496;15.798;2023-11-19T06:21:07;95381.66;;;-0.10;100.00
82375;BME280;72005;50.496;15.798;2023-11-19T06:23:32;95383.06;;;-0.07;100.00
82375;BME280;72005;50.496;15.798;2023-11-19T06:25:58;95376.34;;;-0.08;100.00
82375;BME280;72005;50.496;15.798;2023-11-19T06:28:24;95365.78;;;-0.07;100.00
82375;BME280;72005;50.496;15.798;2023-11-19T06:30:50;95352.31;;;-0.02;100.00
82375;BME280;72005;50.496;15.798;2023-11-19T06:33:16;95353.91;;;-0.01;100.00
82375;BME280;72005;50.496;15.798;2023-11-19T06:35:42;95346.56;;;0.03;100.00
82375;BME280;72005;50.496;15.798;2023-11-19T06:38:07;95343.00;;;0.04;100.00
82375;BME280;72005;50.496;15.798;2023-11-19T06:40:34;95332.28;;;0.00;100.00
82375;BME280;72005;50.496;15.798;2023-11-19T06:43:03;95333.25;;;0.06;100.00
82375;BME280;72005;50.496;15.798;2023-11-19T06:45:29;95339.63;;;0.03;100.00
82375;BME280;72005;50.496;15.798;2023-11-19T06:47:55;95332.88;;;0.09;100.00
82375;BME280;72005;50.496;15.798;2023-11-19T06:50:21;95329.69;;;0.07;100.00
82375;BME280;72005;50.496;15.798;2023-11-19T06:52:47;95334.88;;;0.07;99.96
82375;BME280;72005;50.496;15.798;2023-11-19T06:55:13;95329.88;;;0.05;100.00
82375;BME280;72005;50.496;15.798;2023-11-19T06:57:38;95333.66;;;0.03;100.00
82375;BME280;72005;50.496;15.798;2023-11-19T07:00:05;95329.69;;;0.07;100.00
82375;BME280;72005;50.496;15.798;2023-11-19T07:02:31;95331.28;;;0.08;100.00
82375;BME280;72005;50.496;15.798;2023-11-19T07:04:58;95342.59;;;0.07;100.00
82375;BME280;72005;50.496;15.798;2023-11-19T07:07:23;95330.88;;;0.11;100.00
82375;BME280;72005;50.496;15.798;2023-11-19T07:09:49;95333.50;;;0.17;100.00
82375;BME280;72005;50.496;15.798;2023-11-19T07:12:15;95338.44;;;0.12;100.00
82375;BME280;72005;50.496;15.798;2023-11-19T07:14:41;95338.84;;;0.09;100.00
82375;BME280;72005;50.496;15.798;2023-11-19T07:17:07;95333.28;;;0.12;100.00
82375;BME280;72005;50.496;15.798;2023-11-19T07:19:34;95338.44;;;0.19;100.00
82375;BME280;72005;50.496;15.798;2023-11-19T07:22:02;95331.31;;;0.21;100.00
82375;BME280;72005;50.496;15.798;2023-11-19T07:24:28;95336.09;;;0.24;100.00
82375;BME280;72005;50.496;15.798;2023-11-19T07:26:54;95326.94;;;0.28;99.98
82375;BME280;72005;50.496;15.798;2023-11-19T07:29:20;95303.69;;;0.21;100.00
82375;BME280;72005;50.496;15.798;2023-11-19T07:31:48;95300.31;;;0.21;99.80
82375;BME280;72005;50.496;15.798;2023-11-19T07:34:14;95310.44;;;0.22;100.00
82375;BME280;72005;50.496;15.798;2023-11-19T07:36:40;95296.75;;;0.22;100.00
82375;BME280;72005;50.496;15.798;2023-11-19T07:39:06;95276.09;;;0.22;99.88
82375;BME280;72005;50.496;15.798;2023-11-19T07:41:32;95291.97;;;0.26;100.00
82375;BME280;72005;50.496;15.798;2023-11-19T07:43:58;95292.78;;;0.26;100.00
82375;BME280;72005;50.496;15.798;2023-11-19T07:46:24;95303.50;;;0.30;100.00
82375;BME280;72005;50.496;15.798;2023-11-19T07:48:52;95304.09;;;0.25;99.77
82375;BME280;72005;50.496;15.798;2023-11-19T07:51:17;95294.16;;;0.29;99.60
82375;BME280;72005;50.496;15.798;2023-11-19T07:53:43;95295.16;;;0.28;100.00
82375;BME280;72005;50.496;15.798;2023-11-19T07:56:10;95282.06;;;0.29;99.74
82375;BME280;72005;50.496;15.798;2023-11-19T07:58:36;95289.00;;;0.22;99.98
82375;BME280;72005;50.496;15.798;2023-11-19T08:01:05;95284.03;;;0.27;100.00
82375;BME280;72005;50.496;15.798;2023-11-19T08:03:30;95288.63;;;0.32;99.82
82375;BME280;72005;50.496;15.798;2023-11-19T08:05:56;95274.31;;;0.29;99.82
82375;BME280;72005;50.496;15.798;2023-11-19T08:08:25;95266.53;;;0.22;99.84
82375;BME280;72005;50.496;15.798;2023-11-19T08:10:50;95277.28;;;0.26;100.00
82375;BME280;72005;50.496;15.798;2023-11-19T08:13:18;95281.06;;;0.30;99.96
82375;BME280;72005;50.496;15.798;2023-11-19T08:15:43;95276.09;;;0.35;99.87
82375;BME280;72005;50.496;15.798;2023-11-19T08:18:09;95278.06;;;0.33;99.69
82375;BME280;72005;50.496;15.798;2023-11-19T08:20:35;95273.91;;;0.26;99.92
82375;BME280;72005;50.496;15.798;2023-11-19T08:23:02;95273.50;;;0.35;99.59
82375;BME280;72005;50.496;15.798;2023-11-19T08:25:28;95282.06;;;0.36;99.61
82375;BME280;72005;50.496;15.798;2023-11-19T08:27:54;95281.25;;;0.35;100.00
82375;BME280;72005;50.496;15.798;2023-11-19T08:30:20;95290.19;;;0.39;99.49
82375;BME280;72005;50.496;15.798;2023-11-19T08:32:46;95288.81;;;0.43;99.47
82375;BME280;72005;50.496;15.798;2023-11-19T08:35:11;95278.88;;;0.40;99.27
82375;BME280;72005;50.496;15.798;2023-11-19T08:37:37;95258.41;;;0.39;99.12
82375;BME280;72005;50.496;15.798;2023-11-19T08:40:04;95255.44;;;0.35;99.49
82375;BME280;72005;50.496;15.798;2023-11-19T08:42:30;95245.50;;;0.32;99.29
82375;BME280;72005;50.496;15.798;2023-11-19T08:44:56;95230.81;;;0.26;99.33
82375;BME280;72005;50.496;15.798;2023-11-19T08:47:21;95239.53;;;0.25;99.71
82375;BME280;72005;50.496;15.798;2023-11-19T08:49:50;95250.47;;;0.27;99.79
82375;BME280;72005;50.496;15.798;2023-11-19T08:52:17;95255.44;;;0.35;100.00
82375;BME280;72005;50.496;15.798;2023-11-19T08:54:43;95250.06;;;0.37;99.69
82375;BME280;72005;50.496;15.798;2023-11-19T08:57:09;95263.38;;;0.40;99.52
82375;BME280;72005;50.496;15.798;2023-11-19T08:59:35;95257.59;;;0.45;99.19
82375;BME280;72005;50.496;15.798;2023-11-19T09:02:00;95259.00;;;0.41;99.70
82375;BME280;72005;50.496;15.798;2023-11-19T09:04:27;95263.00;;;0.43;99.57
82375;BME280;72005;50.496;15.798;2023-11-19T09:06:53;95266.56;;;0.49;99.72
82375;BME280;72005;50.496;15.798;2023-11-19T09:09:18;95263.75;;;0.57;98.95
82375;BME280;72005;50.496;15.798;2023-11-19T09:11:44;95270.50;;;0.65;99.24
82375;BME280;72005;50.496;15.798;2023-11-19T09:14:10;95255.81;;;0.72;98.88
82375;BME280;72005;50.496;15.798;2023-11-19T09:16:36;95253.19;;;0.79;98.65
82375;BME280;72005;50.496;15.798;2023-11-19T09:19:01;95255.38;;;0.82;98.49
82375;BME280;72005;50.496;15.798;2023-11-19T09:21:28;95248.59;;;0.87;98.33
82375;BME280;72005;50.496;15.798;2023-11-19T09:23:57;95241.03;;;0.86;98.11
82375;BME280;72005;50.496;15.798;2023-11-19T09:26:23;95236.69;;;0.86;97.84
82375;BME280;72005;50.496;15.798;2023-11-19T09:28:48;95257.53;;;0.92;97.79
82375;BME280;72005;50.496;15.798;2023-11-19T09:31:15;95237.44;;;0.94;97.53
82375;BME280;72005;50.496;15.798;2023-11-19T09:33:41;95237.22;;;1.02;97.45
82375;BME280;72005;50.496;15.798;2023-11-19T09:36:07;95223.09;;;1.04;97.23
82375;BME280;72005;50.496;15.798;2023-11-19T09:38:32;95222.28;;;1.10;96.97
82375;BME280;72005;50.496;15.798;2023-11-19T09:40:59;95219.06;;;1.15;96.74
82375;BME280;72005;50.496;15.798;2023-11-19T09:43:27;95213.88;;;1.15;96.66
82375;BME280;72005;50.496;15.798;2023-11-19T09:45:54;95213.50;;;1.18;96.49
82375;BME280;72005;50.496;15.798;2023-11-19T09:48:21;95205.91;;;1.23;96.54
82375;BME280;72005;50.496;15.798;2023-11-19T09:50:50;95197.56;;;1.21;96.22
82375;BME280;72005;50.496;15.798;2023-11-19T09:53:17;95198.56;;;1.20;96.16
82375;BME280;72005;50.496;15.798;2023-11-19T09:55:43;95197.56;;;1.21;95.99
82375;BME280;72005;50.496;15.798;2023-11-19T09:58:09;95189.97;;;1.26;96.20
82375;BME280;72005;50.496;15.798;2023-11-19T10:00:37;95190.78;;;1.27;95.92
82375;BME280;72005;50.496;15.798;2023-11-19T10:03:03;95198.91;;;1.30;95.84
82375;BME280;72005;50.496;15.798;2023-11-19T10:05:30;95201.69;;;1.35;95.86
82375;BME280;72005;50.496;15.798;2023-11-19T10:07:56;95200.69;;;1.37;95.86
82375;BME280;72005;50.496;15.798;2023-11-19T10:10:22;95201.44;;;1.44;96.01
82375;BME280;72005;50.496;15.798;2023-11-19T10:12:50;95205.38;;;1.53;95.93
82375;BME280;72005;50.496;15.798;2023-11-19T10:15:20;95191.97;;;1.63;95.79
82375;BME280;72005;50.496;15.798;2023-11-19T10:17:47;95194.50;;;1.69;95.69
82375;BME280;72005;50.496;15.798;2023-11-19T10:20:13;95200.44;;;1.76;95.40
82375;BME280;72005;50.496;15.798;2023-11-19T10:22:38;95202.78;;;1.85;95.36
82375;BME280;72005;50.496;15.798;2023-11-19T10:25:05;95185.81;;;1.89;94.86
82375;BME280;72005;50.496;15.798;2023-11-19T10:27:30;95181.25;;;1.91;94.93
82375;BME280;72005;50.496;15.798;2023-11-19T10:29:59;95187.56;;;1.95;94.89
82375;BME280;72005;50.496;15.798;2023-11-19T10:32:25;95188.75;;;1.99;94.89
82375;BME280;72005;50.496;15.798;2023-11-19T10:34:50;95185.31;;;2.05;94.42
82375;BME280;72005;50.496;15.798;2023-11-19T10:37:30;95165.75;;;2.09;94.44
82375;BME280;72005;50.496;15.798;2023-11-19T10:39:58;95173.25;;;2.17;94.50
82375;BME280;72005;50.496;15.798;2023-11-19T10:42:23;95174.41;;;2.21;93.95
82375;BME280;72005;50.496;15.798;2023-11-19T10:44:49;95170.22;;;2.20;93.67
82375;BME280;72005;50.496;15.798;2023-11-19T10:47:15;95157.09;;;2.22;93.61
82375;BME280;72005;50.496;15.798;2023-11-19T10:49:47;95163.03;;;2.22;93.42
82375;BME280;72005;50.496;15.798;2023-11-19T10:52:17;95158.28;;;2.19;92.88
82375;BME280;72005;50.496;15.798;2023-11-19T10:54:50;95169.09;;;2.16;92.95
82375;BME280;72005;50.496;15.798;2023-11-19T10:57:24;95183.88;;;2.09;92.89
82375;BME280;72005;50.496;15.798;2023-11-19T11:00:00;95177.97;;;2.02;92.83
82375;BME280;72005;50.496;15.798;2023-11-19T11:02:27;95178.81;;;1.96;92.45
82375;BME280;72005;50.496;15.798;2023-11-19T11:04:54;95174.44;;;1.90;92.38
82375;BME280;72005;50.496;15.798;2023-11-19T11:07:21;95174.72;;;1.82;92.50
82375;BME280;72005;50.496;15.798;2023-11-19T11:09:51;95166.22;;;1.74;92.56
82375;BME280;72005;50.496;15.798;2023-11-19T11:12:17;95168.63;;;1.69;92.34
82375;BME280;72005;50.496;15.798;2023-11-19T11:14:48;95171.44;;;1.68;92.94
82375;BME280;72005;50.496;15.798;2023-11-19T11:17:17;95178.41;;;1.67;92.99
82375;BME280;72005;50.496;15.798;2023-11-19T11:19:43;95161.09;;;1.68;93.26
82375;BME280;72005;50.496;15.798;2023-11-19T11:22:10;95155.84;;;1.74;93.17
82375;BME280;72005;50.496;15.798;2023-11-19T11:27:48;95162.16;;;1.85;93.32
82375;BME280;72005;50.496;15.798;2023-11-19T11:30:27;95146.97;;;1.89;93.16
82375;BME280;72005;50.496;15.798;2023-11-19T11:35:55;95152.91;;;1.96;92.81
82375;BME280;72005;50.496;15.798;2023-11-19T11:38:28;95152.06;;;2.02;93.14
82375;BME280;72005;50.496;15.798;2023-11-19T11:41:21;95144.72;;;1.99;92.96
82375;BME280;72005;50.496;15.798;2023-11-19T11:43:52;95120.81;;;1.97;92.46
82375;BME280;72005;50.496;15.798;2023-11-19T11:49:04;95141.19;;;1.93;92.53
82375;BME280;72005;50.496;15.798;2023-11-19T11:57:08;95138.00;;;1.91;92.49
82375;BME280;72005;50.496;15.798;2023-11-19T12:02:08;95129.75;;;2.01;92.36
82375;BME280;72005;50.496;15.798;2023-11-19T12:04:41;95126.72;;;2.04;92.50
82375;BME280;72005;50.496;15.798;2023-11-19T12:07:17;95126.88;;;2.09;92.87
82375;BME280;72005;50.496;15.798;2023-11-19T12:09:53;95120.28;;;2.13;92.75
82375;BME280;72005;50.496;15.798;2023-11-19T12:12:33;95124.03;;;2.17;92.49
82375;BME280;72005;50.496;15.798;2023-11-19T12:15:01;95114.03;;;2.21;92.54
82375;BME280;72005;50.496;15.798;2023-11-19T12:17:48;95112.44;;;2.20;92.25
82375;BME280;72005;50.496;15.798;2023-11-19T12:20:15;95119.16;;;2.28;92.15
82375;BME280;72005;50.496;15.798;2023-11-19T12:22:43;95104.16;;;2.30;92.22
82375;BME280;72005;50.496;15.798;2023-11-19T12:25:11;95098.00;;;2.31;92.20
82375;BME280;72005;50.496;15.798;2023-11-19T12:27:41;95097.19;;;2.30;92.39
82375;BME280;72005;50.496;15.798;2023-11-19T12:30:08;95107.19;;;2.26;91.85
82375;BME280;72005;50.496;15.798;2023-11-19T12:32:44;95117.34;;;2.28;92.28
82375;BME280;72005;50.496;15.798;2023-11-19T12:35:11;95105.97;;;2.29;92.23
82375;BME280;72005;50.496;15.798;2023-11-19T12:37:48;95111.16;;;2.29;92.22
82375;BME280;72005;50.496;15.798;2023-11-19T12:40:24;95113.38;;;2.25;91.96
82375;BME280;72005;50.496;15.798;2023-11-19T12:42:52;95113.59;;;2.24;91.88
82375;BME280;72005;50.496;15.798;2023-11-19T12:45:21;95105.63;;;2.25;92.17
82375;BME280;72005;50.496;15.798;2023-11-19T12:47:49;95102.88;;;2.20;91.82
82375;BME280;72005;50.496;15.798;2023-11-19T12:50:17;95107.09;;;2.15;92.07
82375;BME280;72005;50.496;15.798;2023-11-19T12:52:57;95111.34;;;2.09;91.92
82375;BME280;72005;50.496;15.798;2023-11-19T12:55:30;95097.81;;;2.07;92.40
82375;BME280;72005;50.496;15.798;2023-11-19T12:57:58;95102.00;;;2.08;92.08
82375;BME280;72005;50.496;15.798;2023-11-19T13:00:26;95109.34;;;2.11;92.61
82375;BME280;72005;50.496;15.798;2023-11-19T13:02:56;95093.81;;;2.11;92.61
82375;BME280;72005;50.496;15.798;2023-11-19T13:08:04;95077.69;;;2.09;92.62
82375;BME280;72005;50.496;15.798;2023-11-19T13:10:31;95070.69;;;2.10;92.81
82375;BME280;72005;50.496;15.798;2023-11-19T13:13:04;95069.75;;;2.04;92.78
82375;BME280;72005;50.496;15.798;2023-11-19T13:15:31;95053.66;;;2.02;92.60
82375;BME280;72005;50.496;15.798;2023-11-19T13:17:58;95053.84;;;2.00;93.24